sensor_id;sensor_type;location;lat;lon;timestamp;pressure;altitude;pressure_sealevel;temperature;humidity
46836;BME280;32573;51.290;6.926;2023-02-28T00:01:48;101561.94;;;0.94;100.00
46836;BME280;32573;51.290;6.926;2023-02-28T00:04:17;101564.41;;;0.93;100.00
46836;BME280;32573;51.290;6.926;2023-02-28T00:06:46;101561.69;;;0.91;100.00
46836;BME280;32573;51.290;6.926;2023-02-28T00:09:15;101558.34;;;0.92;100.00
46836;BME280;32573;51.290;6.926;2023-02-28T00:11:44;101565.16;;;0.92;100.00
46836;BME280;32573;51.290;6.926;2023-02-28T00:14:13;101563.50;;;0.92;100.00
46836;BME280;32573;51.290;6.926;2023-02-28T00:16:41;101555.00;;;0.93;100.00
46836;BME280;32573;51.290;6.926;2023-02-28T00:19:10;101559.38;;;0.94;100.00
46836;BME280;32573;51.290;6.926;2023-02-28T00:21:40;101557.06;;;0.97;100.00
46836;BME280;32573;51.290;6.926;2023-02-28T00:24:09;101560.69;;;0.99;100.00
46836;BME280;32573;51.290;6.926;2023-02-28T00:26:39;101555.84;;;1.02;100.00
46836;BME280;32573;51.290;6.926;2023-02-28T00:29:11;101553.50;;;1.05;100.00
46836;BME280;32573;51.290;6.926;2023-02-28T00:31:40;101546.81;;;1.07;100.00
46836;BME280;32573;51.290;6.926;2023-02-28T00:34:11;101557.25;;;1.09;100.00
46836;BME280;32573;51.290;6.926;2023-02-28T00:36:39;101553.94;;;1.10;100.00
46836;BME280;32573;51.290;6.926;2023-02-28T00:39:12;101561.78;;;1.12;100.00
46836;BME280;32573;51.290;6.926;2023-02-28T00:41:42;101552.09;;;1.09;100.00
46836;BME280;32573;51.290;6.926;2023-02-28T00:44:10;101547.84;;;1.10;100.00
46836;BME280;32573;51.290;6.926;2023-02-28T00:46:39;101552.09;;;1.09;100.00
46836;BME280;32573;51.290;6.926;2023-02-28T00:49:08;101544.25;;;1.07;100.00
46836;BME280;32573;51.290;6.926;2023-02-28T00:51:36;101547.56;;;1.06;100.00
46836;BME280;32573;51.290;6.926;2023-02-28T00:54:05;101550.94;;;1.05;100.00
46836;BME280;32573;51.290;6.926;2023-02-28T00:56:33;101555.19;;;1.05;100.00
46836;BME280;32573;51.290;6.926;2023-02-28T00:59:03;101549.00;;;1.03;100.00
46836;BME280;32573;51.290;6.926;2023-02-28T01:01:31;101549.63;;;1.00;100.00
46836;BME280;32573;51.290;6.926;2023-02-28T01:04:00;101557.22;;;0.99;100.00
46836;BME280;32573;51.290;6.926;2023-02-28T01:06:30;101560.44;;;0.96;100.00
46836;BME280;32573;51.290;6.926;2023-02-28T01:09:06;101558.34;;;0.92;100.00
46836;BME280;32573;51.290;6.926;2023-02-28T01:11:44;101563.38;;;0.91;100.00
46836;BME280;32573;51.290;6.926;2023-02-28T01:14:16;101555.22;;;0.86;100.00
46836;BME280;32573;51.290;6.926;2023-02-28T01:16:46;101555.06;;;0.84;100.00
46836;BME280;32573;51.290;6.926;2023-02-28T01:19:14;101557.53;;;0.83;100.00
46836;BME280;32573;51.290;6.926;2023-02-28T01:21:43;101556.50;;;0.81;100.00
46836;BME280;32573;51.290;6.926;2023-02-28T01:24:13;101563.16;;;0.79;100.00
46836;BME280;32573;51.290;6.926;2023-02-28T01:26:41;101559.53;;;0.77;100.00
46836;BME280;32573;51.290;6.926;2023-02-28T01:29:10;101558.50;;;0.75;100.00
46836;BME280;32573;51.290;6.926;2023-02-28T01:31:45;101553.09;;;0.72;100.00
46836;BME280;32573;51.290;6.926;2023-02-28T01:34:13;101559.75;;;0.70;100.00
46836;BME280;32573;51.290;6.926;2023-02-28T01:36:42;101559.50;;;0.67;100.00
46836;BME280;32573;51.290;6.926;2023-02-28T01:39:10;101556.81;;;0.65;100.00
46836;BME280;32573;51.290;6.926;2023-02-28T01:41:39;101564.38;;;0.63;100.00
46836;BME280;32573;51.290;6.926;2023-02-28T01:47:11;101558.97;;;0.60;100.00
46836;BME280;32573;51.290;6.926;2023-02-28T01:49:43;101554.44;;;0.58;100.00
46836;BME280;32573;51.290;6.926;2023-02-28T01:52:15;101553.38;;;0.56;100.00
46836;BME280;32573;51.290;6.926;2023-02-28T01:54:48;101550.53;;;0.53;100.00
46836;BME280;32573;51.290;6.926;2023-02-28T01:57:21;101547.81;;;0.51;100.00
46836;BME280;32573;51.290;6.926;2023-02-28T01:59:57;101545.88;;;0.49;100.00
46836;BME280;32573;51.290;6.926;2023-02-28T02:02:29;101543.91;;;0.46;100.00
46836;BME280;32573;51.290;6.926;2023-02-28T02:05:00;101549.06;;;0.46;100.00
46836;BME280;32573;51.290;6.926;2023-02-28T02:07:33;101543.78;;;0.45;100.00
46836;BME280;32573;51.290;6.926;2023-02-28T02:10:10;101538.50;;;0.43;100.00
46836;BME280;32573;51.290;6.926;2023-02-28T02:13:12;101537.28;;;0.39;100.00
46836;BME280;32573;51.290;6.926;2023-02-28T02:15:49;101536.25;;;0.37;100.00
46836;BME280;32573;51.290;6.926;2023-02-28T02:18:29;101534.31;;;0.35;100.00
46836;BME280;32573;51.290;6.926;2023-02-28T02:27:22;101525.50;;;0.23;100.00
46836;BME280;32573;51.290;6.926;2023-02-28T02:30:14;101524.28;;;0.19;100.00
46836;BME280;32573;51.290;6.926;2023-02-28T02:35:49;101516.94;;;0.13;100.00
46836;BME280;32573;51.290;6.926;2023-02-28T02:38:23;101520.88;;;0.10;100.00
46836;BME280;32573;51.290;6.926;2023-02-28T02:41:05;101517.91;;;0.05;100.00
46836;BME280;32573;51.290;6.926;2023-02-28T02:43:40;101511.44;;;0.00;100.00
46836;BME280;32573;51.290;6.926;2023-02-28T02:46:13;101516.28;;;-0.03;100.00
46836;BME280;32573;51.290;6.926;2023-02-28T02:48:45;101513.41;;;-0.06;100.00
46836;BME280;32573;51.290;6.926;2023-02-28T02:51:18;101512.38;;;-0.08;100.00
46836;BME280;32573;51.290;6.926;2023-02-28T02:53:51;101526.75;;;-0.10;100.00
46836;BME280;32573;51.290;6.926;2023-02-28T02:56:23;101518.91;;;-0.12;100.00
46836;BME280;32573;51.290;6.926;2023-02-28T02:58:56;101515.44;;;-0.12;100.00
46836;BME280;32573;51.290;6.926;2023-02-28T03:01:29;101518.03;;;-0.12;100.00
46836;BME280;32573;51.290;6.926;2023-02-28T03:04:01;101511.03;;;-0.13;100.00
46836;BME280;32573;51.290;6.926;2023-02-28T03:06:32;101522.13;;;-0.14;100.00
46836;BME280;32573;51.290;6.926;2023-02-28T03:09:01;101525.59;;;-0.14;100.00
46836;BME280;32573;51.290;6.926;2023-02-28T03:11:29;101524.69;;;-0.14;100.00
46836;BME280;32573;51.290;6.926;2023-02-28T03:17:02;101519.38;;;-0.16;100.00
46836;BME280;32573;51.290;6.926;2023-02-28T03:19:47;101529.84;;;-0.14;100.00
46836;BME280;32573;51.290;6.926;2023-02-28T03:22:29;101523.91;;;-0.13;100.00
46836;BME280;32573;51.290;6.926;2023-02-28T03:25:07;101524.69;;;-0.14;100.00
46836;BME280;32573;51.290;6.926;2023-02-28T03:27:40;101515.28;;;-0.14;100.00
46836;BME280;32573;51.290;6.926;2023-02-28T03:30:17;101514.41;;;-0.14;100.00
46836;BME280;32573;51.290;6.926;2023-02-28T03:32:54;101508.34;;;-0.15;100.00
46836;BME280;32573;51.290;6.926;2023-02-28T03:35:26;101518.66;;;-0.15;100.00
46836;BME280;32573;51.290;6.926;2023-02-28T03:38:01;101504.84;;;-0.15;100.00
46836;BME280;32573;51.290;6.926;2023-02-28T03:40:34;101508.19;;;-0.16;100.00
46836;BME280;32573;51.290;6.926;2023-02-28T03:43:14;101512.56;;;-0.15;100.00
46836;BME280;32573;51.290;6.926;2023-02-28T03:45:47;101521.06;;;-0.16;100.00
46836;BME280;32573;51.290;6.926;2023-02-28T03:48:20;101505.34;;;-0.19;100.00
46836;BME280;32573;51.290;6.926;2023-02-28T03:50:54;101513.81;;;-0.20;100.00
46836;BME280;32573;51.290;6.926;2023-02-28T03:53:27;101517.16;;;-0.22;100.00
46836;BME280;32573;51.290;6.926;2023-02-28T03:55:59;101521.41;;;-0.22;100.00
46836;BME280;32573;51.290;6.926;2023-02-28T03:58:33;101523.03;;;-0.23;100.00
46836;BME280;32573;51.290;6.926;2023-02-28T04:01:09;101517.78;;;-0.24;100.00
46836;BME280;32573;51.290;6.926;2023-02-28T04:03:40;101515.06;;;-0.26;100.00
46836;BME280;32573;51.290;6.926;2023-02-28T04:06:15;101520.19;;;-0.26;100.00
46836;BME280;32573;51.290;6.926;2023-02-28T04:08:46;101527.78;;;-0.27;100.00
46836;BME280;32573;51.290;6.926;2023-02-28T04:11:22;101525.97;;;-0.28;100.00
46836;BME280;32573;51.290;6.926;2023-02-28T04:13:51;101525.84;;;-0.30;100.00
46836;BME280;32573;51.290;6.926;2023-02-28T04:16:19;101526.59;;;-0.31;100.00
46836;BME280;32573;51.290;6.926;2023-02-28T04:19:02;101533.25;;;-0.33;100.00
46836;BME280;32573;51.290;6.926;2023-02-28T04:21:34;101532.34;;;-0.33;100.00
46836;BME280;32573;51.290;6.926;2023-02-28T04:24:07;101529.66;;;-0.35;100.00
46836;BME280;32573;51.290;6.926;2023-02-28T04:26:36;101526.03;;;-0.37;100.00
46836;BME280;32573;51.290;6.926;2023-02-28T04:29:05;101532.69;;;-0.39;100.00
46836;BME280;32573;51.290;6.926;2023-02-28T04:31:34;101530.13;;;-0.39;100.00
46836;BME280;32573;51.290;6.926;2023-02-28T04:34:03;101538.59;;;-0.40;100.00
46836;BME280;32573;51.290;6.926;2023-02-28T04:36:31;101528.31;;;-0.40;100.00
46836;BME280;32573;51.290;6.926;2023-02-28T04:39:00;101527.25;;;-0.42;100.00
46836;BME280;32573;51.290;6.926;2023-02-28T04:41:30;101529.06;;;-0.41;100.00
46836;BME280;32573;51.290;6.926;2023-02-28T04:43:59;101530.59;;;-0.43;100.00
46836;BME280;32573;51.290;6.926;2023-02-28T04:46:28;101533.03;;;-0.45;100.00
46836;BME280;32573;51.290;6.926;2023-02-28T04:48:57;101542.38;;;-0.45;100.00
46836;BME280;32573;51.290;6.926;2023-02-28T04:51:26;101545.72;;;-0.46;100.00
46836;BME280;32573;51.290;6.926;2023-02-28T04:53:56;101538.78;;;-0.47;100.00
46836;BME280;32573;51.290;6.926;2023-02-28T04:56:24;101542.09;;;-0.48;100.00
46836;BME280;32573;51.290;6.926;2023-02-28T04:58:54;101542.09;;;-0.48;100.00
46836;BME280;32573;51.290;6.926;2023-02-28T05:01:24;101547.84;;;-0.51;100.00
46836;BME280;32573;51.290;6.926;2023-02-28T05:03:55;101541.81;;;-0.51;100.00
46836;BME280;32573;51.290;6.926;2023-02-28T05:06:25;101538.19;;;-0.53;100.00
46836;BME280;32573;51.290;6.926;2023-02-28T05:08:54;101540.63;;;-0.55;100.00
46836;BME280;32573;51.290;6.926;2023-02-28T05:11:25;101540.63;;;-0.55;100.00
46836;BME280;32573;51.290;6.926;2023-02-28T05:13:56;101540.63;;;-0.55;100.00
46836;BME280;32573;51.290;6.926;2023-02-28T05:16:24;101537.13;;;-0.55;100.00
46836;BME280;32573;51.290;6.926;2023-02-28T05:18:53;101543.06;;;-0.56;100.00
46836;BME280;32573;51.290;6.926;2023-02-28T05:21:28;101540.47;;;-0.56;100.00
46836;BME280;32573;51.290;6.926;2023-02-28T05:24:00;101547.31;;;-0.57;100.00
46836;BME280;32573;51.290;6.926;2023-02-28T05:26:29;101550.75;;;-0.56;100.00
46836;BME280;32573;51.290;6.926;2023-02-28T05:28:59;101550.59;;;-0.58;100.00
46836;BME280;32573;51.290;6.926;2023-02-28T05:31:28;101550.47;;;-0.59;100.00
46836;BME280;32573;51.290;6.926;2023-02-28T05:33:57;101553.97;;;-0.59;100.00
46836;BME280;32573;51.290;6.926;2023-02-28T05:36:25;101549.44;;;-0.61;100.00
46836;BME280;32573;51.290;6.926;2023-02-28T05:38:54;101563.19;;;-0.61;100.00
46836;BME280;32573;51.290;6.926;2023-02-28T05:41:22;101564.84;;;-0.61;100.00
46836;BME280;32573;51.290;6.926;2023-02-28T05:43:51;101563.78;;;-0.63;100.00
46836;BME280;32573;51.290;6.926;2023-02-28T05:46:21;101560.94;;;-0.67;100.00
46836;BME280;32573;51.290;6.926;2023-02-28T05:48:50;101559.13;;;-0.68;100.00
46836;BME280;32573;51.290;6.926;2023-02-28T05:51:18;101569.28;;;-0.69;100.00
46836;BME280;32573;51.290;6.926;2023-02-28T05:53:47;101565.81;;;-0.70;100.00
46836;BME280;32573;51.290;6.926;2023-02-28T05:56:16;101562.91;;;-0.73;100.00
46836;BME280;32573;51.290;6.926;2023-02-28T05:58:45;101563.69;;;-0.74;100.00
46836;BME280;32573;51.290;6.926;2023-02-28T06:01:23;101572.16;;;-0.75;100.00
46836;BME280;32573;51.290;6.926;2023-02-28T06:03:52;101571.09;;;-0.77;100.00
46836;BME280;32573;51.290;6.926;2023-02-28T06:06:20;101570.06;;;-0.79;100.00
46836;BME280;32573;51.290;6.926;2023-02-28T06:08:49;101579.44;;;-0.79;100.00
46836;BME280;32573;51.290;6.926;2023-02-28T06:11:17;101579.28;;;-0.81;100.00
46836;BME280;32573;51.290;6.926;2023-02-28T06:13:47;101592.72;;;-0.83;100.00
46836;BME280;32573;51.290;6.926;2023-02-28T06:16:15;101589.09;;;-0.85;100.00
46836;BME280;32573;51.290;6.926;2023-02-28T06:18:45;101591.53;;;-0.87;100.00
46836;BME280;32573;51.290;6.926;2023-02-28T06:21:14;101587.91;;;-0.89;100.00
46836;BME280;32573;51.290;6.926;2023-02-28T06:23:42;101598.19;;;-0.89;100.00
46836;BME280;32573;51.290;6.926;2023-02-28T06:26:11;101598.81;;;-0.92;100.00
46836;BME280;32573;51.290;6.926;2023-02-28T06:28:40;101603.78;;;-0.93;100.00
46836;BME280;32573;51.290;6.926;2023-02-28T06:31:10;101601.97;;;-0.94;100.00
46836;BME280;32573;51.290;6.926;2023-02-28T06:33:39;101598.50;;;-0.95;100.00
46836;BME280;32573;51.290;6.926;2023-02-28T06:36:11;101599.25;;;-0.96;100.00
46836;BME280;32573;51.290;6.926;2023-02-28T06:38:40;101606.06;;;-0.96;100.00
46836;BME280;32573;51.290;6.926;2023-02-28T06:41:09;101604.25;;;-0.97;100.00
46836;BME280;32573;51.290;6.926;2023-02-28T06:43:40;101604.25;;;-0.97;100.00
46836;BME280;32573;51.290;6.926;2023-02-28T06:46:11;101605.16;;;-0.97;100.00
46836;BME280;32573;51.290;6.926;2023-02-28T06:48:45;101606.84;;;-0.97;100.00
46836;BME280;32573;51.290;6.926;2023-02-28T06:51:17;101611.97;;;-0.97;100.00
46836;BME280;32573;51.290;6.926;2023-02-28T06:53:47;101612.88;;;-0.97;100.00
46836;BME280;32573;51.290;6.926;2023-02-28T06:56:17;101609.41;;;-0.97;100.00
46836;BME280;32573;51.290;6.926;2023-02-28T06:58:48;101614.53;;;-0.97;100.00
46836;BME280;32573;51.290;6.926;2023-02-28T07:01:17;101618.13;;;-0.95;100.00
46836;BME280;32573;51.290;6.926;2023-02-28T07:03:46;101619.81;;;-0.96;100.00
46836;BME280;32573;51.290;6.926;2023-02-28T07:06:21;101623.28;;;-0.95;100.00
46836;BME280;32573;51.290;6.926;2023-02-28T07:08:51;101626.00;;;-0.94;100.00
46836;BME280;32573;51.290;6.926;2023-02-28T07:11:20;101621.78;;;-0.93;100.00
46836;BME280;32573;51.290;6.926;2023-02-28T07:13:49;101625.41;;;-0.91;100.00
46836;BME280;32573;51.290;6.926;2023-02-28T07:16:18;101624.00;;;-0.88;100.00
46836;BME280;32573;51.290;6.926;2023-02-28T07:18:47;101621.59;;;-0.86;100.00
46836;BME280;32573;51.290;6.926;2023-02-28T07:21:15;101627.81;;;-0.84;100.00
46836;BME280;32573;51.290;6.926;2023-02-28T07:23:45;101629.00;;;-0.80;100.00
46836;BME280;32573;51.290;6.926;2023-02-28T07:26:16;101628.38;;;-0.78;100.00
46836;BME280;32573;51.290;6.926;2023-02-28T07:28:46;101631.28;;;-0.75;100.00
46836;BME280;32573;51.290;6.926;2023-02-28T07:31:15;101629.00;;;-0.72;100.00
46836;BME280;32573;51.290;6.926;2023-02-28T07:33:44;101636.22;;;-0.68;100.00
46836;BME280;32573;51.290;6.926;2023-02-28T07:36:14;101635.00;;;-0.62;100.00
46836;BME280;32573;51.290;6.926;2023-02-28T07:38:46;101626.72;;;-0.60;100.00
46836;BME280;32573;51.290;6.926;2023-02-28T07:41:18;101636.50;;;-0.56;100.00
46836;BME280;32573;51.290;6.926;2023-02-28T07:43:47;101630.00;;;-0.52;100.00
46836;BME280;32573;51.290;6.926;2023-02-28T07:46:16;101633.78;;;-0.49;100.00
46836;BME280;32573;51.290;6.926;2023-02-28T07:48:47;101636.00;;;-0.43;100.00
46836;BME280;32573;51.290;6.926;2023-02-28T07:51:15;101635.56;;;-0.39;100.00
46836;BME280;32573;51.290;6.926;2023-02-28T07:53:45;101636.13;;;-0.33;100.00
46836;BME280;32573;51.290;6.926;2023-02-28T07:56:14;101634.88;;;-0.28;100.00
46836;BME280;32573;51.290;6.926;2023-02-28T07:58:42;101643.94;;;-0.23;100.00
46836;BME280;32573;51.290;6.926;2023-02-28T08:01:11;101635.78;;;-0.18;100.00
46836;BME280;32573;51.290;6.926;2023-02-28T08:03:40;101636.38;;;-0.12;100.00
46836;BME280;32573;51.290;6.926;2023-02-28T08:06:15;101640.28;;;-0.07;100.00
46836;BME280;32573;51.290;6.926;2023-02-28T08:08:46;101645.09;;;-0.02;100.00
46836;BME280;32573;51.290;6.926;2023-02-28T08:11:15;101639.59;;;0.04;100.00
46836;BME280;32573;51.290;6.926;2023-02-28T08:13:44;101642.59;;;0.09;100.00
46836;BME280;32573;51.290;6.926;2023-02-28T08:16:14;101642.25;;;0.14;100.00
46836;BME280;32573;51.290;6.926;2023-02-28T08:18:48;101642.84;;;0.20;100.00
46836;BME280;32573;51.290;6.926;2023-02-28T08:21:17;101644.19;;;0.26;100.00
46836;BME280;32573;51.290;6.926;2023-02-28T08:23:50;101645.53;;;0.31;100.00
46836;BME280;32573;51.290;6.926;2023-02-28T08:26:19;101649.41;;;0.36;100.00
46836;BME280;32573;51.290;6.926;2023-02-28T08:28:48;101644.81;;;0.42;100.00
46836;BME280;32573;51.290;6.926;2023-02-28T08:31:17;101642.69;;;0.47;100.00
46836;BME280;32573;51.290;6.926;2023-02-28T08:33:46;101644.16;;;0.53;100.00
46836;BME280;32573;51.290;6.926;2023-02-28T08:36:15;101644.72;;;0.59;100.00
46836;BME280;32573;51.290;6.926;2023-02-28T08:38:44;101643.44;;;0.64;100.00
46836;BME280;32573;51.290;6.926;2023-02-28T08:41:14;101640.66;;;0.72;100.00
46836;BME280;32573;51.290;6.926;2023-02-28T08:43:42;101645.63;;;0.79;100.00
46836;BME280;32573;51.290;6.926;2023-02-28T08:46:12;101642.56;;;0.83;100.00
46836;BME280;32573;51.290;6.926;2023-02-28T08:48:41;101646.59;;;0.90;100.00
46836;BME280;32573;51.290;6.926;2023-02-28T08:51:12;101648.06;;;0.96;100.00
46836;BME280;32573;51.290;6.926;2023-02-28T08:53:41;101649.38;;;1.01;100.00
46836;BME280;32573;51.290;6.926;2023-02-28T08:56:12;101648.13;;;1.06;100.00
46836;BME280;32573;51.290;6.926;2023-02-28T08:58:42;101646.84;;;1.12;100.00
46836;BME280;32573;51.290;6.926;2023-02-28T09:01:12;101638.63;;;1.16;100.00
46836;BME280;32573;51.290;6.926;2023-02-28T09:03:42;101641.75;;;1.22;100.00
46836;BME280;32573;51.290;6.926;2023-02-28T09:06:11;101637.91;;;1.27;100.00
46836;BME280;32573;51.290;6.926;2023-02-28T09:08:40;101641.03;;;1.33;100.00
46836;BME280;32573;51.290;6.926;2023-02-28T09:11:09;101639.00;;;1.39;100.00
46836;BME280;32573;51.290;6.926;2023-02-28T09:13:38;101636.19;;;1.46;100.00
46836;BME280;32573;51.290;6.926;2023-02-28T09:16:10;101637.75;;;1.55;100.00
46836;BME280;32573;51.290;6.926;2023-02-28T09:18:39;101631.31;;;1.60;100.00
46836;BME280;32573;51.290;6.926;2023-02-28T09:21:10;101625.94;;;1.67;100.00
46836;BME280;32573;51.290;6.926;2023-02-28T09:23:41;101627.22;;;1.72;100.00
46836;BME280;32573;51.290;6.926;2023-02-28T09:26:13;101624.41;;;1.79;100.00
46836;BME280;32573;51.290;6.926;2023-02-28T09:28:42;101628.28;;;1.84;100.00
46836;BME280;32573;51.290;6.926;2023-02-28T09:31:14;101620.31;;;1.91;100.00
46836;BME280;32573;51.290;6.926;2023-02-28T09:33:44;101616.44;;;1.97;100.00
46836;BME280;32573;51.290;6.926;2023-02-28T09:36:12;101620.31;;;2.02;100.00
46836;BME280;32573;51.290;6.926;2023-02-28T09:38:41;101612.88;;;2.05;100.00
46836;BME280;32573;51.290;6.926;2023-02-28T09:41:13;101610.78;;;2.11;100.00
46836;BME280;32573;51.290;6.926;2023-02-28T09:43:45;101619.03;;;2.17;100.00
46836;BME280;32573;51.290;6.926;2023-02-28T09:46:28;101615.97;;;2.21;100.00
46836;BME280;32573;51.290;6.926;2023-02-28T09:49:02;101618.03;;;2.25;100.00
46836;BME280;32573;51.290;6.926;2023-02-28T09:51:42;101621.91;;;2.30;100.00
46836;BME280;32573;51.290;6.926;2023-02-28T09:54:15;101619.72;;;2.35;100.00
46836;BME280;32573;51.290;6.926;2023-02-28T09:56:49;101619.31;;;2.41;100.00
46836;BME280;32573;51.290;6.926;2023-02-28T09:59:31;101624.75;;;2.44;100.00
46836;BME280;32573;51.290;6.926;2023-02-28T10:02:13;101616.22;;;2.45;100.00
46836;BME280;32573;51.290;6.926;2023-02-28T10:04:49;101629.25;;;2.46;100.00
46836;BME280;32573;51.290;6.926;2023-02-28T10:07:41;101618.28;;;2.49;100.00
46836;BME280;32573;51.290;6.926;2023-02-28T10:10:20;101621.41;;;2.55;100.00
46836;BME280;32573;51.290;6.926;2023-02-28T10:12:52;101624.22;;;2.58;100.00
46836;BME280;32573;51.290;6.926;2023-02-28T10:15:24;101627.44;;;2.66;100.00
46836;BME280;32573;51.290;6.926;2023-02-28T10:17:58;101630.66;;;2.73;100.00
46836;BME280;32573;51.290;6.926;2023-02-28T10:20:37;101616.81;;;2.83;100.00
46836;BME280;32573;51.290;6.926;2023-02-28T10:23:13;101619.78;;;2.88;100.00
46836;BME280;32573;51.290;6.926;2023-02-28T10:25:48;101617.31;;;2.89;100.00
46836;BME280;32573;51.290;6.926;2023-02-28T10:28:18;101616.56;;;2.90;100.00
46836;BME280;32573;51.290;6.926;2023-02-28T10:30:47;101612.28;;;2.91;100.00
46836;BME280;32573;51.290;6.926;2023-02-28T10:33:22;101609.94;;;2.94;100.00
46836;BME280;32573;51.290;6.926;2023-02-28T10:35:52;101609.28;;;2.96;100.00
46836;BME280;32573;51.290;6.926;2023-02-28T10:38:22;101611.34;;;3.00;100.00
46836;BME280;32573;51.290;6.926;2023-02-28T10:41:02;101601.38;;;3.05;100.00
46836;BME280;32573;51.290;6.926;2023-02-28T10:43:31;101620.22;;;3.14;100.00
46836;BME280;32573;51.290;6.926;2023-02-28T10:46:02;101609.06;;;3.26;100.00
46836;BME280;32573;51.290;6.926;2023-02-28T10:48:36;101609.91;;;3.36;100.00
46836;BME280;32573;51.290;6.926;2023-02-28T10:51:06;101612.34;;;3.45;100.00
46836;BME280;32573;51.290;6.926;2023-02-28T10:53:39;101604.16;;;3.51;100.00
46836;BME280;32573;51.290;6.926;2023-02-28T10:56:27;101599.38;;;3.55;100.00
46836;BME280;32573;51.290;6.926;2023-02-28T10:58:58;101589.47;;;3.61;100.00
46836;BME280;32573;51.290;6.926;2023-02-28T11:01:39;101590.63;;;3.65;100.00
46836;BME280;32573;51.290;6.926;2023-02-28T11:04:18;101586.59;;;3.68;100.00
46836;BME280;32573;51.290;6.926;2023-02-28T11:06:56;101584.22;;;3.72;100.00
46836;BME280;32573;51.290;6.926;2023-02-28T11:09:29;101588.22;;;3.78;100.00
46836;BME280;32573;51.290;6.926;2023-02-28T11:11:58;101581.84;;;3.85;100.00
46836;BME280;32573;51.290;6.926;2023-02-28T11:14:28;101590.44;;;3.96;100.00
46836;BME280;32573;51.290;6.926;2023-02-28T11:17:13;101588.44;;;4.03;100.00
46836;BME280;32573;51.290;6.926;2023-02-28T11:19:48;101591.50;;;4.09;100.00
46836;BME280;32573;51.290;6.926;2023-02-28T11:22:20;101589.16;;;4.13;100.00
46836;BME280;32573;51.290;6.926;2023-02-28T11:24:52;101585.00;;;4.15;100.00
46836;BME280;32573;51.290;6.926;2023-02-28T11:27:38;101587.25;;;4.22;100.00
46836;BME280;32573;51.290;6.926;2023-02-28T11:30:31;101576.69;;;4.30;100.00
46836;BME280;32573;51.290;6.926;2023-02-28T11:33:01;101577.63;;;4.43;100.00
46836;BME280;32573;51.290;6.926;2023-02-28T11:35:33;101585.28;;;4.53;100.00
46836;BME280;32573;51.290;6.926;2023-02-28T11:38:05;101575.84;;;4.65;100.00
46836;BME280;32573;51.290;6.926;2023-02-28T11:40:43;101582.41;;;4.72;100.00
46836;BME280;32573;51.290;6.926;2023-02-28T11:43:25;101581.81;;;4.76;100.00
46836;BME280;32573;51.290;6.926;2023-02-28T11:46:06;101583.06;;;4.81;100.00
46836;BME280;32573;51.290;6.926;2023-02-28T11:48:44;101572.13;;;4.85;100.00
46836;BME280;32573;51.290;6.926;2023-02-28T11:51:21;101580.25;;;4.90;100.00
46836;BME280;32573;51.290;6.926;2023-02-28T11:54:06;101578.44;;;5.01;100.00
46836;BME280;32573;51.290;6.926;2023-02-28T11:56:44;101585.34;;;5.12;100.00
46836;BME280;32573;51.290;6.926;2023-02-28T11:59:25;101578.31;;;5.23;100.00
46836;BME280;32573;51.290;6.926;2023-02-28T12:02:01;101580.78;;;5.33;100.00
46836;BME280;32573;51.290;6.926;2023-02-28T12:04:37;101568.81;;;5.35;100.00
46836;BME280;32573;51.290;6.926;2023-02-28T12:07:18;101564.31;;;5.32;100.00
46836;BME280;32573;51.290;6.926;2023-02-28T12:09:59;101560.69;;;5.30;100.00
46836;BME280;32573;51.290;6.926;2023-02-28T12:12:40;101553.94;;;5.32;100.00
46836;BME280;32573;51.290;6.926;2023-02-28T12:15:20;101557.97;;;5.40;100.00
46836;BME280;32573;51.290;6.926;2023-02-28T12:18:05;101555.00;;;5.48;100.00
46836;BME280;32573;51.290;6.926;2023-02-28T12:20:45;101554.06;;;5.59;100.00
46836;BME280;32573;51.290;6.926;2023-02-28T12:23:30;101549.63;;;5.70;100.00
46836;BME280;32573;51.290;6.926;2023-02-28T12:26:12;101544.28;;;5.80;100.00
46836;BME280;32573;51.290;6.926;2023-02-28T12:28:46;101547.28;;;5.86;100.00
46836;BME280;32573;51.290;6.926;2023-02-28T12:31:19;101539.81;;;5.91;100.00
46836;BME280;32573;51.290;6.926;2023-02-28T12:33:52;101535.38;;;6.01;100.00
46836;BME280;32573;51.290;6.926;2023-02-28T12:36:21;101535.13;;;6.10;100.00
46836;BME280;32573;51.290;6.926;2023-02-28T12:38:55;101534.13;;;6.21;100.00
46836;BME280;32573;51.290;6.926;2023-02-28T12:41:29;101520.06;;;6.31;100.00
46836;BME280;32573;51.290;6.926;2023-02-28T12:44:06;101515.69;;;6.43;100.00
46836;BME280;32573;51.290;6.926;2023-02-28T12:46:40;101515.41;;;6.52;100.00
46836;BME280;32573;51.290;6.926;2023-02-28T12:49:15;101507.22;;;6.59;100.00
46836;BME280;32573;51.290;6.926;2023-02-28T12:51:44;101498.91;;;6.65;100.00
46836;BME280;32573;51.290;6.926;2023-02-28T12:54:19;101498.19;;;6.67;100.00
46836;BME280;32573;51.290;6.926;2023-02-28T12:56:54;101499.22;;;6.69;100.00
46836;BME280;32573;51.290;6.926;2023-02-28T12:59:29;101496.78;;;6.73;100.00
46836;BME280;32573;51.290;6.926;2023-02-28T13:08:57;101487.16;;;6.98;100.00
46836;BME280;32573;51.290;6.926;2023-02-28T13:11:31;101485.34;;;7.10;100.00
46836;BME280;32573;51.290;6.926;2023-02-28T13:14:02;101476.81;;;7.26;100.00
46836;BME280;32573;51.290;6.926;2023-02-28T13:17:02;101477.66;;;7.40;100.00
46836;BME280;32573;51.290;6.926;2023-02-28T13:19:34;101473.78;;;7.48;100.00
46836;BME280;32573;51.290;6.926;2023-02-28T13:22:05;101473.56;;;7.59;100.00
46836;BME280;32573;51.290;6.926;2023-02-28T13:24:43;101470.72;;;7.69;100.00
46836;BME280;32573;51.290;6.926;2023-02-28T13:27:35;101462.84;;;7.82;100.00
46836;BME280;32573;51.290;6.926;2023-02-28T13:33:21;101460.53;;;8.02;100.00
46836;BME280;32573;51.290;6.926;2023-02-28T13:36:06;101452.59;;;8.15;100.00
46836;BME280;32573;51.290;6.926;2023-02-28T13:38:38;101463.75;;;8.27;100.00